TAF Text Data
IDs:
Format:
Raw Decoded Include METAR

Data at: 0252 UTC 21 Sep 2021

KECG 202331Z 2100/2124 05009KT P6SM SCT020 BKN250
  FM210200 07006KT P6SM BKN250
  FM211600 10010KT P6SM BKN050